Time;durP1;ratioP1;P1;durP2;ratioP2;P2;SDS_P1;SDS_P2;PMS_P1;PMS_P2;Temp;Humidity;BMP_temperature;BMP_pressure;BME280_temperature;BME280_humidity;BME280_pressure;Samples;Min_cycle;Max_cycle;Signal;HPM_P1;HPM_P2
2022/04/01 00:01:01;;;;;;;5.47;3.35;;;1.90;99.90;;;;;;5038899;28;20448;-59
2022/04/01 00:03:27;;;;;;;3.80;2.80;;;1.90;99.90;;;;;;5037329;28;20025;-59
2022/04/01 00:05:53;;;;;;;4.63;2.92;;;1.90;99.90;;;;;;5039050;28;20032;-59
2022/04/01 00:08:18;;;;;;;3.85;2.75;;;1.90;99.90;;;;;;5044836;28;20024;-59
2022/04/01 00:10:44;;;;;;;5.90;3.33;;;1.90;99.90;;;;;;5043641;28;20048;-59
2022/04/01 00:13:09;;;;;;;6.80;2.97;;;1.90;99.90;;;;;;5036231;28;20033;-59
2022/04/01 00:15:35;;;;;;;5.78;3.13;;;1.90;99.90;;;;;;5044892;28;20026;-60
2022/04/01 00:18:00;;;;;;;4.68;2.78;;;1.80;99.90;;;;;;5036130;28;20073;-59
2022/04/01 00:20:27;;;;;;;4.13;2.95;;;1.80;99.90;;;;;;5045642;28;20068;-59
2022/04/01 00:22:53;;;;;;;4.60;2.90;;;1.70;99.90;;;;;;5042146;28;20473;-60
2022/04/01 00:25:19;;;;;;;5.20;3.42;;;1.80;99.90;;;;;;5040762;28;20087;-59
2022/04/01 00:27:44;;;;;;;5.60;3.53;;;1.70;99.90;;;;;;5033209;28;20033;-59
2022/04/01 00:30:11;;;;;;;5.85;3.65;;;1.70;99.90;;;;;;5036006;28;20037;-59
2022/04/01 00:32:37;;;;;;;5.53;3.60;;;1.70;99.90;;;;;;5036002;28;20107;-59
2022/04/01 00:35:03;;;;;;;5.68;3.47;;;1.60;99.90;;;;;;5037493;28;20031;-59
2022/04/01 00:37:29;;;;;;;4.80;3.60;;;1.70;99.90;;;;;;5038538;28;20045;-59
2022/04/01 00:39:55;;;;;;;4.28;3.00;;;1.60;99.90;;;;;;5034813;28;20025;-58
2022/04/01 00:42:21;;;;;;;3.97;3.20;;;1.60;99.90;;;;;;5032097;28;20033;-59
2022/04/01 00:44:46;;;;;;;5.03;3.95;;;1.60;99.90;;;;;;5034665;28;20049;-59
2022/04/01 00:47:14;;;;;;;6.10;3.40;;;1.60;99.90;;;;;;5032716;28;20114;-59
2022/04/01 00:49:42;;;;;;;3.85;3.10;;;1.60;99.90;;;;;;5036222;28;20029;-58
2022/04/01 00:52:10;;;;;;;4.65;3.63;;;1.60;99.90;;;;;;5041009;28;20131;-60
2022/04/01 00:54:37;;;;;;;4.30;3.00;;;1.60;99.90;;;;;;5041044;28;20108;-59
2022/04/01 00:57:04;;;;;;;7.00;4.35;;;1.60;99.90;;;;;;5037828;28;20486;-58
2022/04/01 00:59:30;;;;;;;4.47;3.60;;;1.60;99.90;;;;;;5038160;28;20013;-59
2022/04/01 01:01:55;;;;;;;5.57;3.30;;;1.60;99.90;;;;;;5032877;28;20029;-59
2022/04/01 01:04:21;;;;;;;4.35;3.40;;;1.60;99.90;;;;;;5037388;28;20034;-59
2022/04/01 01:06:52;;;;;;;4.15;3.53;;;1.60;99.90;;;;;;5036483;28;20025;-59
2022/04/01 01:09:18;;;;;;;5.63;3.72;;;1.60;99.90;;;;;;5035390;28;20094;-59
2022/04/01 01:11:45;;;;;;;5.55;3.38;;;1.50;99.90;;;;;;5031078;28;20493;-59
2022/04/01 01:14:13;;;;;;;4.50;3.72;;;1.50;99.90;;;;;;5039879;28;20033;-59
2022/04/01 01:16:41;;;;;;;4.75;3.38;;;1.50;99.90;;;;;;5032311;28;20028;-59
2022/04/01 01:19:11;;;;;;;3.75;3.00;;;1.60;99.90;;;;;;5030415;28;20541;-59
2022/04/01 01:21:39;;;;;;;5.45;3.63;;;1.60;99.90;;;;;;5030407;28;20091;-60
2022/04/01 01:24:06;;;;;;;5.38;3.40;;;1.50;99.90;;;;;;5032514;28;20073;-60
2022/04/01 01:26:34;;;;;;;3.95;3.55;;;1.50;99.90;;;;;;5034592;28;20865;-60
2022/04/01 01:29:00;;;;;;;4.47;3.67;;;1.50;99.90;;;;;;5035129;28;20028;-60
2022/04/01 01:31:27;;;;;;;5.30;3.72;;;1.50;99.90;;;;;;5034930;28;20108;-60
2022/04/01 01:33:56;;;;;;;4.85;3.30;;;1.50;99.90;;;;;;5032156;28;20064;-60
2022/04/01 01:36:23;;;;;;;5.68;3.83;;;1.50;99.90;;;;;;5035190;28;20047;-60
2022/04/01 01:38:49;;;;;;;4.57;3.90;;;1.50;99.90;;;;;;5037732;28;20036;-60
2022/04/01 01:41:14;;;;;;;6.15;3.80;;;1.50;99.90;;;;;;5031601;28;20025;-60
2022/04/01 01:43:41;;;;;;;4.70;3.70;;;1.50;99.90;;;;;;5031860;28;20086;-60
2022/04/01 01:46:07;;;;;;;4.88;3.75;;;1.50;99.90;;;;;;5032056;28;20465;-60
2022/04/01 01:48:33;;;;;;;5.63;4.00;;;1.40;99.90;;;;;;5033810;28;20104;-60
2022/04/01 01:56:27;;;;;;;6.53;4.90;;;1.40;99.90;;;;;;5029089;28;20449;-60
2022/04/01 01:58:53;;;;;;;6.95;4.97;;;1.40;99.90;;;;;;5031476;28;20037;-60
2022/04/01 02:01:19;;;;;;;6.07;4.75;;;1.40;99.90;;;;;;5035683;28;20374;-59
2022/04/01 02:03:44;;;;;;;7.07;4.78;;;1.40;99.90;;;;;;5035522;28;20028;-60
2022/04/01 02:06:10;;;;;;;5.38;4.63;;;1.40;99.90;;;;;;5036736;28;20024;-60
2022/04/01 02:08:36;;;;;;;7.47;5.90;;;1.30;99.90;;;;;;5037676;28;20076;-60
2022/04/01 02:11:02;;;;;;;6.45;5.72;;;1.30;99.90;;;;;;5030649;28;20397;-60
2022/04/01 02:13:27;;;;;;;5.28;4.70;;;1.30;99.90;;;;;;5036688;28;20624;-60
2022/04/01 02:15:54;;;;;;;5.55;4.50;;;1.30;99.90;;;;;;5031237;28;20104;-60
2022/04/01 02:18:20;;;;;;;6.00;5.40;;;1.30;99.90;;;;;;5046689;28;20049;-60
2022/04/01 02:20:46;;;;;;;7.60;5.15;;;1.30;99.90;;;;;;5028383;28;20025;-59
2022/04/01 02:23:12;;;;;;;6.47;4.80;;;1.30;99.90;;;;;;5033528;28;20100;-60
2022/04/01 02:25:40;;;;;;;5.57;4.68;;;1.30;99.90;;;;;;5031310;28;20092;-60
2022/04/01 02:28:06;;;;;;;5.45;4.60;;;1.30;99.90;;;;;;5031155;28;20021;-60
2022/04/01 02:30:32;;;;;;;6.18;4.68;;;1.30;99.90;;;;;;5036818;28;20029;-60
2022/04/01 02:32:57;;;;;;;5.97;4.85;;;1.30;99.90;;;;;;5043447;28;20025;-60
2022/04/01 02:35:23;;;;;;;5.72;4.10;;;1.30;99.90;;;;;;5028310;28;20025;-60
2022/04/01 02:37:49;;;;;;;5.55;4.07;;;1.30;99.90;;;;;;5035998;28;20539;-60
2022/04/01 02:40:15;;;;;;;5.45;4.05;;;1.30;99.90;;;;;;5033914;28;20044;-60
2022/04/01 02:42:41;;;;;;;5.72;3.92;;;1.30;99.90;;;;;;5030977;28;20033;-60
2022/04/01 02:45:07;;;;;;;5.57;3.38;;;1.30;99.90;;;;;;5033733;28;20025;-60
2022/04/01 02:47:33;;;;;;;5.22;4.05;;;1.30;99.90;;;;;;5043085;28;20029;-60
2022/04/01 02:50:00;;;;;;;5.88;3.80;;;1.20;99.90;;;;;;5029129;28;20374;-60
2022/04/01 02:52:26;;;;;;;4.35;3.80;;;1.20;99.90;;;;;;5032876;28;20450;-60
2022/04/01 02:54:52;;;;;;;6.38;3.72;;;1.20;99.90;;;;;;5028185;28;20032;-60
2022/04/01 02:57:18;;;;;;;5.57;4.18;;;1.20;99.90;;;;;;5034727;28;20435;-60
2022/04/01 02:59:44;;;;;;;4.70;3.78;;;1.20;99.90;;;;;;5043057;28;20033;-60
2022/04/01 03:02:10;;;;;;;4.97;3.67;;;1.20;99.90;;;;;;5030312;28;21519;-60
2022/04/01 03:04:36;;;;;;;5.05;4.35;;;1.30;99.90;;;;;;5030612;28;20037;-60
2022/04/01 03:07:02;;;;;;;4.10;3.40;;;1.20;99.90;;;;;;5030502;28;20029;-60
2022/04/01 03:09:28;;;;;;;4.40;3.80;;;1.20;99.90;;;;;;5030692;28;20053;-60
2022/04/01 03:11:54;;;;;;;4.78;3.72;;;1.20;99.90;;;;;;5042859;28;20059;-59
2022/04/01 03:14:20;;;;;;;5.22;4.05;;;1.20;99.90;;;;;;5033284;28;20021;-59
2022/04/01 03:16:48;;;;;;;5.68;4.40;;;1.20;99.90;;;;;;5030498;28;20033;-60
2022/04/01 03:19:13;;;;;;;6.25;4.10;;;1.20;99.90;;;;;;5033715;28;20077;-60
2022/04/01 03:21:39;;;;;;;6.05;4.38;;;1.20;99.90;;;;;;5035076;28;20506;-60
2022/04/01 03:24:06;;;;;;;5.65;4.22;;;1.20;99.90;;;;;;5030546;28;20072;-60
2022/04/01 03:26:31;;;;;;;6.07;4.30;;;1.10;99.90;;;;;;5032869;28;20124;-60
2022/04/01 03:28:59;;;;;;;6.00;4.43;;;1.20;99.90;;;;;;5027754;28;20104;-60
2022/04/01 03:31:25;;;;;;;6.22;4.25;;;1.20;99.90;;;;;;5037426;28;20022;-60
2022/04/01 03:33:51;;;;;;;6.70;5.05;;;1.20;99.90;;;;;;5032895;28;20116;-60
2022/04/01 03:36:17;;;;;;;7.80;4.50;;;1.20;99.90;;;;;;5027260;28;20049;-60
2022/04/01 03:38:42;;;;;;;6.75;4.82;;;1.20;99.90;;;;;;5032062;28;20055;-60
2022/04/01 03:41:10;;;;;;;6.65;4.20;;;1.20;99.90;;;;;;5031280;28;20555;-60
2022/04/01 03:43:36;;;;;;;5.82;4.20;;;1.20;99.90;;;;;;5036607;28;20032;-60
2022/04/01 03:46:24;;;;;;;5.85;4.18;;;1.20;99.90;;;;;;5038872;28;20530;-60
2022/04/01 03:49:01;;;;;;;4.82;3.80;;;1.20;99.90;;;;;;5049483;28;20413;-60
2022/04/01 03:51:29;;;;;;;5.97;4.22;;;1.20;99.90;;;;;;5037729;28;20029;-60
2022/04/01 03:54:02;;;;;;;4.80;4.25;;;1.20;99.90;;;;;;5042372;28;20124;-60
2022/04/01 03:56:36;;;;;;;5.78;4.25;;;1.20;99.90;;;;;;5031507;28;20025;-60
2022/04/01 03:59:04;;;;;;;5.97;4.15;;;1.20;99.90;;;;;;5033036;28;20040;-60
2022/04/01 04:01:30;;;;;;;6.00;4.68;;;1.20;99.90;;;;;;5032713;28;20079;-60
2022/04/01 04:03:56;;;;;;;4.60;4.10;;;1.20;99.90;;;;;;5030139;28;20025;-59
2022/04/01 04:06:23;;;;;;;5.40;3.85;;;1.20;99.90;;;;;;5027160;28;20393;-59
2022/04/01 04:08:53;;;;;;;6.22;4.50;;;1.20;99.90;;;;;;5027323;28;20029;-60
2022/04/01 04:11:24;;;;;;;5.70;4.50;;;1.20;99.90;;;;;;5033884;28;20026;-60
2022/04/01 04:13:51;;;;;;;4.78;3.67;;;1.20;99.90;;;;;;5032357;28;20045;-60
2022/04/01 04:16:23;;;;;;;5.55;4.50;;;1.20;99.90;;;;;;5031885;28;20033;-60
2022/04/01 04:18:52;;;;;;;5.97;4.80;;;1.20;99.90;;;;;;5036771;28;20049;-60
2022/04/01 04:21:25;;;;;;;6.53;4.60;;;1.20;99.90;;;;;;5033520;28;20459;-60
2022/04/01 04:24:01;;;;;;;6.75;3.97;;;1.20;99.90;;;;;;5041594;28;20049;-60
2022/04/01 04:26:35;;;;;;;7.82;4.65;;;1.20;99.90;;;;;;5034708;28;20016;-60
2022/04/01 04:29:10;;;;;;;7.13;4.28;;;1.20;99.90;;;;;;5033533;28;20283;-59
2022/04/01 04:31:38;;;;;;;4.57;4.07;;;1.20;99.90;;;;;;5039551;28;20104;-60
2022/04/01 04:34:08;;;;;;;5.68;4.65;;;1.20;99.90;;;;;;5035009;28;20025;-59
2022/04/01 04:36:41;;;;;;;4.32;3.90;;;1.20;99.90;;;;;;5030400;28;20025;-59
2022/04/01 04:39:09;;;;;;;5.70;4.53;;;1.20;99.90;;;;;;5033173;28;20033;-60
2022/04/01 04:41:35;;;;;;;7.55;4.28;;;1.20;99.90;;;;;;5035779;28;20084;-59
2022/04/01 04:44:01;;;;;;;6.22;4.07;;;1.20;99.90;;;;;;5033222;28;20025;-59
2022/04/01 04:46:27;;;;;;;4.78;4.28;;;1.20;99.90;;;;;;5032543;28;20024;-60
2022/04/01 04:48:54;;;;;;;5.70;4.03;;;1.20;99.90;;;;;;5038280;28;20025;-60
2022/04/01 04:51:25;;;;;;;5.05;3.83;;;1.20;99.90;;;;;;5033091;28;20092;-60
2022/04/01 04:53:51;;;;;;;4.80;3.72;;;1.20;99.90;;;;;;5037237;28;20029;-60
2022/04/01 04:56:18;;;;;;;4.90;3.85;;;1.20;99.90;;;;;;5035836;28;20028;-59
2022/04/01 04:58:44;;;;;;;4.80;3.85;;;1.20;99.90;;;;;;5030301;28;20021;-59
2022/04/01 05:01:24;;;;;;;5.13;3.78;;;1.20;99.90;;;;;;5035442;28;20488;-59
2022/04/01 05:04:12;;;;;;;4.32;3.45;;;1.20;99.90;;;;;;5028468;28;20025;-59
2022/04/01 05:06:52;;;;;;;6.45;3.30;;;1.10;99.90;;;;;;5033657;28;20026;-59
2022/04/01 05:09:40;;;;;;;5.22;3.83;;;1.10;99.90;;;;;;5032501;28;20416;-59
2022/04/01 05:12:24;;;;;;;5.88;3.50;;;1.20;99.90;;;;;;5032700;28;20018;-59
2022/04/01 05:15:04;;;;;;;6.30;3.80;;;1.20;99.90;;;;;;5038180;28;20457;-60
2022/04/01 05:17:37;;;;;;;7.13;3.33;;;1.20;99.90;;;;;;5032881;28;20041;-60
2022/04/01 05:20:15;;;;;;;6.18;3.85;;;1.20;99.90;;;;;;5032928;28;20465;-59
2022/04/01 05:22:50;;;;;;;4.95;3.10;;;1.20;99.90;;;;;;5043540;28;20027;-59
2022/04/01 05:25:19;;;;;;;5.22;3.38;;;1.20;99.90;;;;;;5040210;28;20051;-59
2022/04/01 05:27:53;;;;;;;3.95;3.10;;;1.20;99.90;;;;;;5029503;28;20032;-59
2022/04/01 05:30:20;;;;;;;5.00;3.72;;;1.20;99.90;;;;;;5032445;28;20030;-59
2022/04/01 05:33:08;;;;;;;4.05;3.08;;;1.20;99.90;;;;;;5049974;28;20030;-59
2022/04/01 05:35:37;;;;;;;7.45;3.33;;;1.20;99.90;;;;;;5027728;28;20022;-59
2022/04/01 05:38:04;;;;;;;6.10;3.72;;;1.20;99.90;;;;;;5037641;28;20080;-59
2022/04/01 05:40:31;;;;;;;5.28;3.17;;;1.20;99.90;;;;;;5029169;28;20025;-59
2022/04/01 05:42:59;;;;;;;4.60;3.30;;;1.20;99.90;;;;;;5037585;28;20024;-59
2022/04/01 05:45:26;;;;;;;4.55;3.20;;;1.10;99.90;;;;;;5040078;28;20029;-59
2022/04/01 05:47:53;;;;;;;3.38;2.47;;;1.10;99.90;;;;;;5035567;28;20551;-59
2022/04/01 05:50:19;;;;;;;5.10;3.03;;;1.10;99.90;;;;;;5030832;28;20459;-59
2022/04/01 05:52:50;;;;;;;4.80;3.15;;;1.10;99.90;;;;;;5034777;28;20025;-59
2022/04/01 05:55:19;;;;;;;4.82;2.92;;;1.20;99.90;;;;;;5028949;28;20021;-59
2022/04/01 05:57:45;;;;;;;4.05;2.80;;;1.20;99.90;;;;;;5031606;28;20362;-59
2022/04/01 06:00:12;;;;;;;6.13;2.83;;;1.20;99.90;;;;;;5031746;28;20382;-59
2022/04/01 06:02:56;;;;;;;3.53;2.72;;;1.20;99.90;;;;;;5031513;28;20014;-59
2022/04/01 06:05:22;;;;;;;5.32;2.55;;;1.20;99.90;;;;;;5036021;28;20032;-59
2022/04/01 06:08:10;;;;;;;4.68;2.70;;;1.20;99.90;;;;;;5032733;28;20381;-59
2022/04/01 06:10:50;;;;;;;4.97;2.30;;;1.20;99.90;;;;;;5036737;28;20026;-59
2022/04/01 06:13:21;;;;;;;7.43;2.80;;;1.20;99.90;;;;;;5034168;28;20507;-59
2022/04/01 06:16:16;;;;;;;3.92;2.47;;;1.20;99.90;;;;;;5041298;28;20397;-59
2022/04/01 06:19:12;;;;;;;3.55;2.38;;;1.20;99.90;;;;;;5046922;28;20496;-59
2022/04/01 06:21:45;;;;;;;6.38;3.35;;;1.20;99.90;;;;;;5031503;28;20045;-59
2022/04/01 06:24:28;;;;;;;4.72;2.50;;;1.20;99.90;;;;;;5032134;28;20032;-59
2022/04/01 06:27:00;;;;;;;5.47;2.50;;;1.20;99.90;;;;;;5031881;28;20483;-59
2022/04/01 06:29:42;;;;;;;4.75;2.50;;;1.20;99.90;;;;;;5038212;28;20473;-59
2022/04/01 06:32:22;;;;;;;3.85;2.47;;;1.20;99.90;;;;;;5040198;28;20044;-59
2022/04/01 06:35:02;;;;;;;6.72;2.83;;;1.20;99.90;;;;;;5040596;28;20021;-59
2022/04/01 06:37:32;;;;;;;4.00;2.47;;;1.30;99.90;;;;;;5051991;28;20032;-59
2022/04/01 06:40:07;;;;;;;5.53;2.85;;;1.30;99.90;;;;;;5051172;28;20477;-59
2022/04/01 06:42:37;;;;;;;5.00;2.78;;;1.30;99.90;;;;;;5050959;28;20025;-59
2022/04/01 06:45:03;;;;;;;;;;;1.30;99.90;;;;;;5051846;28;20029;-59
2022/04/01 06:47:29;;;;;;;3.97;2.30;;;1.30;99.90;;;;;;5052210;28;19905;-59
2022/04/01 06:49:55;;;;;;;3.25;2.28;;;1.30;99.90;;;;;;5052617;28;20115;-59
2022/04/01 06:52:20;;;;;;;4.05;2.72;;;1.30;99.90;;;;;;5052392;28;20469;-59
2022/04/01 06:54:46;;;;;;;4.85;2.65;;;1.40;99.90;;;;;;5050829;28;20384;-59
2022/04/01 06:57:12;;;;;;;3.88;2.20;;;1.40;99.90;;;;;;5052025;28;20029;-59
2022/04/01 06:59:37;;;;;;;3.30;2.20;;;1.40;99.90;;;;;;5052157;28;20025;-59
2022/04/01 07:02:03;;;;;;;4.10;2.67;;;1.40;99.90;;;;;;5051873;28;20102;-58
2022/04/01 07:04:29;;;;;;;4.95;2.30;;;1.40;99.90;;;;;;5052138;28;20056;-59
2022/04/01 07:06:59;;;;;;;4.55;2.53;;;1.50;99.90;;;;;;5050985;28;20547;-59
2022/04/01 07:09:25;;;;;;;;;;;1.50;99.90;;;;;;5051451;28;20020;-59
2022/04/01 07:11:51;;;;;;;5.68;2.42;;;1.40;99.90;;;;;;5060245;28;19909;-59
2022/04/01 07:14:16;;;;;;;3.85;2.60;;;1.40;99.90;;;;;;5045696;28;20520;-59
2022/04/01 07:16:42;;;;;;;5.82;2.50;;;1.50;99.90;;;;;;5046627;28;20064;-59
2022/04/01 07:19:08;;;;;;;3.70;2.25;;;1.50;99.90;;;;;;5049855;28;20053;-59
2022/04/01 07:21:34;;;;;;;4.18;2.70;;;1.50;99.90;;;;;;5048593;28;20025;-60
2022/04/01 07:24:01;;;;;;;5.30;2.08;;;1.50;99.90;;;;;;5049079;28;20380;-59
2022/04/01 07:26:27;;;;;;;4.38;2.70;;;1.50;99.90;;;;;;5044303;28;20040;-59
2022/04/01 07:28:54;;;;;;;4.43;2.45;;;1.50;99.90;;;;;;5049978;28;20461;-59
2022/04/01 07:34:05;;;;;;;4.03;2.53;;;1.60;99.90;;;;;;5050040;28;20086;-59
2022/04/01 07:36:30;;;;;;;3.67;2.55;;;1.60;99.90;;;;;;5051605;28;20419;-59
2022/04/01 07:38:56;;;;;;;4.45;2.60;;;1.60;99.90;;;;;;5051734;28;20115;-59
2022/04/01 07:41:21;;;;;;;4.35;2.47;;;1.60;99.90;;;;;;5051615;28;20036;-59
2022/04/01 07:43:47;;;;;;;4.57;2.88;;;1.60;99.90;;;;;;5051587;28;20484;-59
2022/04/01 07:46:12;;;;;;;3.72;2.33;;;1.70;99.90;;;;;;5044257;28;20100;-59
2022/04/01 07:48:38;;;;;;;3.78;2.22;;;1.70;99.90;;;;;;5051468;28;20033;-59
2022/04/01 07:51:03;;;;;;;5.30;2.85;;;1.70;99.90;;;;;;5064488;28;20020;-59
2022/04/01 07:53:29;;;;;;;4.10;2.10;;;1.70;99.90;;;;;;5061849;28;20483;-59
2022/04/01 07:55:55;;;;;;;5.28;2.63;;;1.70;99.80;;;;;;5071225;28;20503;-59
2022/04/01 07:58:21;;;;;;;3.50;2.15;;;1.70;99.60;;;;;;5058613;28;20028;-59
2022/04/01 08:00:46;;;;;;;4.13;2.35;;;1.70;99.60;;;;;;5067341;28;20025;-59
2022/04/01 08:03:12;;;;;;;4.28;2.15;;;1.70;99.60;;;;;;5065395;28;20484;-59
2022/04/01 08:05:37;;;;;;;3.58;2.17;;;1.70;99.50;;;;;;5060309;28;20083;-59
2022/04/01 08:08:03;;;;;;;4.28;2.17;;;1.80;99.50;;;;;;5054879;28;20097;-59
2022/04/01 08:10:29;;;;;;;2.95;1.92;;;1.80;99.50;;;;;;5054954;28;20507;-59
2022/04/01 08:12:55;;;;;;;2.80;2.05;;;1.80;99.40;;;;;;5053434;28;20552;-59
2022/04/01 08:15:20;;;;;;;2.97;1.70;;;1.90;99.50;;;;;;5054605;28;20039;-59
2022/04/01 08:17:46;;;;;;;2.78;1.63;;;1.90;99.40;;;;;;5053304;28;20037;-59
2022/04/01 08:20:12;;;;;;;3.22;1.92;;;2.00;99.50;;;;;;5054675;28;20044;-59
2022/04/01 08:22:41;;;;;;;3.53;1.70;;;2.00;99.40;;;;;;5055071;28;20036;-59
2022/04/01 08:25:07;;;;;;;3.90;2.00;;;2.00;99.30;;;;;;5054944;28;20043;-59
2022/04/01 08:27:33;;;;;;;2.47;1.58;;;2.10;99.30;;;;;;5053449;28;20025;-59
2022/04/01 08:29:59;;;;;;;3.15;1.67;;;2.20;99.30;;;;;;5054852;28;20033;-58
2022/04/01 08:32:29;;;;;;;3.00;1.77;;;2.20;99.20;;;;;;5053032;28;20070;-59
2022/04/01 08:34:55;;;;;;;4.25;1.85;;;2.30;99.00;;;;;;5054560;28;20370;-59
2022/04/01 08:37:20;;;;;;;3.10;1.83;;;2.30;98.90;;;;;;5046351;28;20468;-59
2022/04/01 08:39:47;;;;;;;3.03;1.42;;;2.30;98.70;;;;;;5029377;28;20427;-59
2022/04/01 08:42:13;;;;;;;3.42;1.45;;;2.40;98.60;;;;;;5034460;28;20497;-59
2022/04/01 08:44:42;;;;;;;3.05;1.00;;;2.40;98.40;;;;;;5063840;28;20353;-59
2022/04/01 08:47:08;;;;;;;5.10;1.50;;;2.40;98.30;;;;;;5056975;28;20063;-58
2022/04/01 08:49:34;;;;;;;3.03;1.30;;;2.40;98.10;;;;;;5055368;28;20021;-59
2022/04/01 08:52:00;;;;;;;2.33;1.05;;;2.40;97.80;;;;;;5063284;28;20052;-59
2022/04/01 08:54:26;;;;;;;1.92;1.02;;;2.40;97.70;;;;;;5059970;28;20033;-59
2022/04/01 08:56:51;;;;;;;3.70;1.27;;;2.40;97.60;;;;;;5058308;28;20099;-59
2022/04/01 08:59:17;;;;;;;2.28;1.00;;;2.40;97.20;;;;;;5049026;28;20032;-67
2022/04/01 09:01:44;;;;;;;4.05;1.55;;;2.40;97.00;;;;;;5048308;28;20025;-67
2022/04/01 09:04:27;;;;;;;4.22;1.10;;;2.40;97.00;;;;;;5048735;28;20504;-67
2022/04/01 09:06:53;;;;;;;2.75;1.00;;;2.40;96.90;;;;;;5053777;28;20480;-67
2022/04/01 09:09:26;;;;;;;2.90;1.10;;;2.40;96.90;;;;;;5046890;28;20330;-67
2022/04/01 09:12:05;;;;;;;2.33;0.85;;;2.40;96.80;;;;;;5051222;28;20028;-67
2022/04/01 09:14:30;;;;;;;2.30;0.90;;;2.50;96.70;;;;;;5068006;28;20028;-67
2022/04/01 09:16:56;;;;;;;2.60;0.85;;;2.50;96.50;;;;;;5062317;28;20380;-67
2022/04/01 09:19:32;;;;;;;3.30;1.10;;;2.50;96.20;;;;;;5060365;28;20087;-67
2022/04/01 09:22:13;;;;;;;2.80;1.60;;;2.50;96.00;;;;;;5069672;28;20120;-66
2022/04/01 09:25:04;;;;;;;3.35;0.80;;;2.60;95.90;;;;;;5059501;28;20473;-67
2022/04/01 09:27:56;;;;;;;1.63;0.73;;;2.70;95.60;;;;;;5059390;28;20032;-67
2022/04/01 09:30:24;;;;;;;1.55;0.73;;;2.70;95.10;;;;;;5040609;28;20075;-67
2022/04/01 09:32:55;;;;;;;1.17;0.70;;;2.80;94.90;;;;;;5063312;28;20028;-67
2022/04/01 09:35:24;;;;;;;2.63;1.20;;;2.80;94.80;;;;;;5065120;28;20029;-67
2022/04/01 09:37:54;;;;;;;1.92;1.00;;;2.80;94.60;;;;;;5056140;28;20488;-66
2022/04/01 09:40:22;;;;;;;2.40;1.02;;;2.90;94.40;;;;;;5048558;28;20033;-67
2022/04/01 09:42:48;;;;;;;3.47;0.90;;;3.00;94.30;;;;;;5053137;28;20067;-67
2022/04/01 09:45:19;;;;;;;3.38;1.23;;;3.00;94.20;;;;;;5045875;28;20029;-67
2022/04/01 09:47:56;;;;;;;2.20;0.98;;;3.10;93.80;;;;;;5049312;28;20017;-67
2022/04/01 09:50:27;;;;;;;4.68;1.60;;;3.10;93.70;;;;;;5043619;28;20473;-67
2022/04/01 09:52:53;;;;;;;4.57;1.20;;;3.20;93.50;;;;;;5050000;28;20136;-67
2022/04/01 09:55:19;;;;;;;4.10;2.20;;;3.30;93.50;;;;;;5049673;28;20455;-67
2022/04/01 09:57:44;;;;;;;3.78;1.60;;;3.30;93.20;;;;;;5049719;28;20036;-67
2022/04/01 10:00:11;;;;;;;3.65;1.48;;;3.30;93.10;;;;;;5051042;28;20029;-67
2022/04/01 10:02:37;;;;;;;2.65;1.50;;;3.30;93.20;;;;;;5051185;28;20468;-67
2022/04/01 10:05:04;;;;;;;3.88;1.63;;;3.40;93.30;;;;;;5051302;28;20036;-67
2022/04/01 10:07:32;;;;;;;5.28;1.50;;;3.50;93.20;;;;;;5051059;28;20028;-67
2022/04/01 10:09:58;;;;;;;2.78;1.20;;;3.50;93.10;;;;;;5051038;28;20028;-67
2022/04/01 10:12:26;;;;;;;2.45;1.38;;;3.60;93.10;;;;;;5049205;28;20032;-67
2022/04/01 10:14:56;;;;;;;2.38;1.55;;;3.60;93.00;;;;;;5050695;28;20021;-68
2022/04/01 10:17:23;;;;;;;;;;;3.70;92.90;;;;;;5050447;28;20065;-67
2022/04/01 10:19:49;;;;;;;4.07;1.83;;;3.70;92.90;;;;;;5049533;28;19958;-67
2022/04/01 10:22:16;;;;;;;5.38;2.10;;;3.70;92.70;;;;;;5050787;28;20656;-67
2022/04/01 10:25:04;;;;;;;2.28;1.60;;;3.70;92.40;;;;;;5050472;28;20107;-68
2022/04/01 10:27:43;;;;;;;4.85;2.25;;;3.80;91.90;;;;;;5048181;28;20025;-67
2022/04/01 10:30:13;;;;;;;4.38;2.13;;;3.80;91.70;;;;;;5050927;28;20092;-67
2022/04/01 10:32:42;;;;;;;4.88;2.20;;;3.70;91.70;;;;;;5047690;28;20112;-67
2022/04/01 10:35:21;;;;;;;2.53;1.50;;;3.80;91.80;;;;;;5047499;28;20071;-67
2022/04/01 10:37:46;;;;;;;5.60;1.90;;;3.80;92.00;;;;;;5050013;28;20083;-67
2022/04/01 10:40:17;;;;;;;3.15;2.00;;;3.90;91.70;;;;;;5051628;28;20485;-68
2022/04/01 10:42:43;;;;;;;2.95;1.90;;;3.90;91.60;;;;;;5052312;28;20025;-67
2022/04/01 10:45:29;;;;;;;4.63;2.30;;;3.80;91.50;;;;;;5051647;28;20025;-67
2022/04/01 10:51:39;;;;;;;5.00;2.67;;;3.80;91.10;;;;;;5052177;28;20051;-67
2022/04/01 10:54:14;;;;;;;3.88;1.90;;;3.80;91.10;;;;;;5051951;28;20104;-67
2022/04/01 10:56:41;;;;;;;7.07;2.47;;;3.70;91.20;;;;;;5051856;28;20515;-67
2022/04/01 10:59:12;;;;;;;3.60;2.08;;;3.70;91.20;;;;;;5047654;28;20033;-67
2022/04/01 11:01:46;;;;;;;6.38;2.35;;;3.80;91.30;;;;;;5047430;28;20044;-67
2022/04/01 11:04:11;;;;;;;3.70;2.55;;;3.70;91.30;;;;;;5050336;28;20525;-67
2022/04/01 11:07:00;;;;;;;3.63;2.30;;;3.70;91.30;;;;;;5045203;28;20024;-67
2022/04/01 11:09:33;;;;;;;4.63;2.90;;;3.70;91.30;;;;;;5048783;28;20017;-67
2022/04/01 11:12:18;;;;;;;4.78;2.75;;;3.70;91.50;;;;;;5057755;28;20036;-67
2022/04/01 11:17:49;;;;;;;5.43;2.90;;;3.70;91.60;;;;;;5046842;28;20040;-67
2022/04/01 11:20:32;;;;;;;4.55;2.88;;;3.70;91.70;;;;;;5045658;28;20041;-67
2022/04/01 11:23:00;;;;;;;5.47;3.10;;;3.70;91.40;;;;;;5053812;28;20028;-67
2022/04/01 11:25:31;;;;;;;4.88;3.08;;;3.70;91.20;;;;;;5054751;28;20028;-67
2022/04/01 11:28:02;;;;;;;4.00;2.85;;;3.70;91.20;;;;;;5053057;28;20021;-67
2022/04/01 11:30:29;;;;;;;5.20;2.67;;;3.70;91.10;;;;;;5057852;28;20029;-67
2022/04/01 11:33:16;;;;;;;5.00;3.13;;;3.70;90.70;;;;;;5048975;28;20025;-69
2022/04/01 11:35:57;;;;;;;4.65;3.15;;;3.70;90.90;;;;;;5055931;28;20039;-67
2022/04/01 11:38:25;;;;;;;6.05;2.53;;;3.70;91.00;;;;;;5056370;28;20040;-68
2022/04/01 11:40:56;;;;;;;4.13;2.75;;;3.80;91.00;;;;;;5053395;28;20361;-67
2022/04/01 11:43:24;;;;;;;6.78;2.92;;;3.80;91.00;;;;;;5056093;28;20123;-67
2022/04/01 11:45:51;;;;;;;4.22;2.97;;;3.90;90.70;;;;;;5056232;28;20450;-68
2022/04/01 11:48:18;;;;;;;4.22;2.92;;;3.80;90.20;;;;;;5055447;28;20025;-67
2022/04/01 11:50:49;;;;;;;4.60;2.90;;;3.80;89.00;;;;;;5058189;28;20059;-69
2022/04/01 11:53:25;;;;;;;6.65;3.08;;;3.80;89.10;;;;;;5056476;28;20492;-68
2022/04/01 11:55:53;;;;;;;6.50;3.17;;;3.80;89.80;;;;;;5047868;28;20028;-67
2022/04/01 11:58:20;;;;;;;5.70;2.92;;;3.80;90.10;;;;;;5055408;28;20382;-68
2022/04/01 12:00:46;;;;;;;6.50;3.20;;;3.80;90.40;;;;;;5050120;28;20024;-68
2022/04/01 12:03:12;;;;;;;7.97;3.28;;;3.80;90.30;;;;;;5042039;28;20672;-67
2022/04/01 12:05:39;;;;;;;7.45;3.72;;;3.80;90.30;;;;;;5050425;28;20424;-68
2022/04/01 12:11:00;;;;;;;7.25;3.78;;;3.80;90.80;;;;;;5058077;28;20093;-67
2022/04/01 12:13:27;;;;;;;6.53;3.60;;;3.80;90.70;;;;;;5057994;28;20028;-67
2022/04/01 12:15:54;;;;;;;4.82;3.58;;;3.80;90.50;;;;;;5057391;28;20114;-67
2022/04/01 12:18:22;;;;;;;7.07;4.32;;;3.80;90.30;;;;;;5057143;28;20076;-67
2022/04/01 12:20:51;;;;;;;6.20;3.53;;;3.90;90.10;;;;;;5055721;28;20061;-67
2022/04/01 12:23:19;;;;;;;7.45;4.00;;;4.00;90.30;;;;;;5057220;28;20031;-68
2022/04/01 12:25:45;;;;;;;6.63;4.20;;;4.10;90.20;;;;;;5058154;28;20028;-67
2022/04/01 12:28:13;;;;;;;7.85;4.18;;;4.10;90.10;;;;;;5057680;28;20112;-67
2022/04/01 12:30:45;;;;;;;6.63;4.45;;;4.10;90.00;;;;;;5057409;28;20021;-67
2022/04/01 12:33:15;;;;;;;5.47;3.40;;;4.10;90.20;;;;;;5053267;28;20556;-67
2022/04/01 12:36:06;;;;;;;6.03;3.83;;;4.10;90.40;;;;;;5046517;28;20504;-68
2022/04/01 12:38:38;;;;;;;6.72;4.40;;;4.10;90.20;;;;;;5062268;28;20401;-68
2022/04/01 12:41:16;;;;;;;7.95;4.30;;;4.00;90.20;;;;;;5050741;28;20021;-67
2022/04/01 12:43:49;;;;;;;6.22;4.40;;;4.00;90.50;;;;;;5051720;28;20054;-67
2022/04/01 12:46:17;;;;;;;6.30;4.55;;;4.00;90.70;;;;;;5054472;28;20104;-68
2022/04/01 12:48:47;;;;;;;8.10;4.03;;;3.90;90.90;;;;;;5051775;28;20097;-68
2022/04/01 12:51:21;;;;;;;10.38;4.82;;;3.90;90.90;;;;;;5048932;28;20029;-68
2022/04/01 12:53:58;;;;;;;8.07;4.18;;;3.90;90.70;;;;;;5049817;28;20021;-68
2022/04/01 12:56:30;;;;;;;5.63;4.00;;;3.90;90.40;;;;;;5052885;28;20025;-68
2022/04/01 12:58:58;;;;;;;5.88;3.78;;;4.00;90.20;;;;;;5022730;28;20025;-68
2022/04/01 13:01:26;;;;;;;7.05;4.18;;;4.10;90.10;;;;;;5053588;28;20091;-67
2022/04/01 13:03:52;;;;;;;6.28;3.90;;;4.10;89.40;;;;;;5044138;28;20078;-68
2022/04/01 13:06:18;;;;;;;5.47;3.95;;;4.10;89.20;;;;;;5052367;28;20461;-67
2022/04/01 13:08:44;;;;;;;4.63;3.47;;;4.20;88.00;;;;;;5050693;28;20026;-67
2022/04/01 13:11:14;;;;;;;7.88;4.35;;;4.20;87.40;;;;;;5069767;28;20025;-67
2022/04/01 13:13:40;;;;;;;;;;;4.20;87.50;;;;;;5061647;28;20037;-68
2022/04/01 13:16:06;;;;;;;7.65;4.45;;;4.20;87.90;;;;;;5060037;28;19916;-68
2022/04/01 13:18:32;;;;;;;8.00;4.65;;;4.20;88.90;;;;;;5068358;28;20052;-67
2022/04/01 13:20:59;;;;;;;6.63;4.00;;;4.20;89.30;;;;;;5053196;28;20044;-68
2022/04/01 13:23:30;;;;;;;6.20;4.25;;;4.30;89.30;;;;;;5050928;28;20029;-68
2022/04/01 13:25:56;;;;;;;8.98;4.68;;;4.30;89.00;;;;;;5061727;28;20027;-68